Time;durP1;ratioP1;P1;durP2;ratioP2;P2;SDS_P1;SDS_P2;PMS_P1;PMS_P2;Temp;Humidity;BMP_temperature;BMP_pressure;BME280_temperature;BME280_humidity;BME280_pressure;Samples;Min_cycle;Max_cycle;Signal;HPM_P1;HPM_P2
2023/10/10 00:00:28;;;;;;;0.22;0.22;;;;;;;12.85;93.53;97925.34;5093490;28;20096;-73
2023/10/10 00:02:56;;;;;;;0.20;0.20;;;;;;;12.82;93.40;97922.22;5095228;28;20127;-74
2023/10/10 00:05:33;;;;;;;0.15;0.15;;;;;;;12.72;94.22;97919.94;5095638;28;20054;-75
2023/10/10 00:08:05;;;;;;;0.43;0.43;;;;;;;12.70;94.17;97921.97;5094789;28;20685;-74
2023/10/10 00:10:34;;;;;;;0.20;0.20;;;;;;;12.68;94.43;97912.47;5096632;28;20054;-74
2023/10/10 00:13:03;;;;;;;0.20;0.20;;;;;;;12.69;94.46;97909.59;5099624;28;20074;-74
2023/10/10 00:15:38;;;;;;;0.15;0.15;;;;;;;12.74;94.24;97917.06;5097489;28;20101;-74
2023/10/10 00:18:11;;;;;;;0.10;0.10;;;;;;;12.71;94.03;97909.41;5095622;28;20044;-74
2023/10/10 00:20:43;;;;;;;0.30;0.30;;;;;;;12.69;94.23;97912.28;5097181;28;20043;-74
2023/10/10 00:23:16;;;;;;;0.32;0.32;;;;;;;12.69;94.33;97908.78;5095502;28;20093;-74
2023/10/10 00:25:45;;;;;;;0.30;0.30;;;;;;;12.71;94.43;97901.38;5096591;28;20044;-74
2023/10/10 00:28:20;;;;;;;0.20;0.20;;;;;;;12.81;93.99;97901.81;5095710;28;20052;-74
2023/10/10 00:30:49;;;;;;;0.17;0.13;;;;;;;12.81;93.68;97905.31;5093762;28;20048;-74
2023/10/10 00:33:17;;;;;;;0.25;0.25;;;;;;;12.79;93.96;97895.84;5093052;28;20125;-75
2023/10/10 00:35:47;;;;;;;0.20;0.20;;;;;;;12.81;94.15;97899.97;5096648;28;20122;-75
2023/10/10 00:38:20;;;;;;;0.10;0.10;;;;;;;12.90;93.86;97894.44;5097798;28;20081;-75
2023/10/10 00:40:48;;;;;;;0.30;0.30;;;;;;;12.95;92.84;97897.34;5096951;28;20047;-76
2023/10/10 00:43:17;;;;;;;0.20;0.20;;;;;;;12.83;93.07;97897.09;5099249;28;20046;-75
2023/10/10 00:45:52;;;;;;;0.20;0.20;;;;;;;12.86;93.22;97899.38;5095653;28;20055;-75
2023/10/10 00:48:22;;;;;;;0.20;0.20;;;;;;;12.89;93.34;97898.97;5098666;28;20131;-76
2023/10/10 00:50:53;;;;;;;0.20;0.20;;;;;;;12.93;93.00;97889.50;5102292;28;20048;-77
2023/10/10 00:53:23;;;;;;;0.10;0.10;;;;;;;12.82;93.71;97893.59;5096574;28;20054;-76
2023/10/10 00:55:56;;;;;;;0.20;0.20;;;;;;;12.79;93.97;97893.16;5097157;28;20118;-77
2023/10/10 00:58:32;;;;;;;0.20;0.20;;;;;;;12.79;94.09;97888.63;5096358;28;20040;-76
2023/10/10 01:01:04;;;;;;;0.17;0.17;;;;;;;12.84;94.07;97896.06;5092795;28;20039;-78
2023/10/10 01:03:34;;;;;;;0.17;0.17;;;;;;;12.88;93.85;97894.63;5093531;28;20131;-76
2023/10/10 01:06:07;;;;;;;0.20;0.20;;;;;;;12.93;93.66;97894.84;5096771;28;20059;-76
2023/10/10 01:08:59;;;;;;;0.20;0.10;;;;;;;12.95;93.58;97889.31;5094933;28;20043;-76
2023/10/10 01:11:29;;;;;;;0.30;0.20;;;;;;;12.94;93.64;97893.84;5097756;28;20047;-76
2023/10/10 01:13:57;;;;;;;0.20;0.20;;;;;;;12.85;93.77;97881.66;5096657;28;20048;-76
2023/10/10 01:16:27;;;;;;;0.20;0.20;;;;;;;12.79;94.06;97885.94;5093036;28;20047;-75
2023/10/10 01:18:57;;;;;;;0.30;0.30;;;;;;;12.84;94.34;97885.34;5099312;28;20040;-76
2023/10/10 01:21:32;;;;;;;0.30;0.10;;;;;;;12.92;93.69;97882.47;5098562;28;20469;-76
2023/10/10 01:24:11;;;;;;;0.20;0.20;;;;;;;12.84;93.91;97883.50;5093001;28;20516;-77
2023/10/10 01:26:44;;;;;;;0.20;0.20;;;;;;;12.82;94.17;97887.41;5094063;28;20412;-76
2023/10/10 01:29:21;;;;;;;;;;;;;;;12.86;94.14;97886.00;5094353;28;20056;-76
2023/10/10 01:31:51;;;;;;;0.10;0.10;;;;;;;12.81;94.16;97883.91;5094054;28;19927;-75
2023/10/10 01:34:39;;;;;;;0.10;0.10;;;;;;;12.86;93.79;97886.81;5091498;28;20127;-74
2023/10/10 01:37:14;;;;;;;0.10;0.10;;;;;;;12.89;93.98;97882.88;5091974;28;20084;-75
2023/10/10 01:39:55;;;;;;;0.10;0.10;;;;;;;12.86;94.61;97883.31;5097492;28;20043;-74
2023/10/10 01:42:31;;;;;;;0.20;0.20;;;;;;;12.90;93.99;97876.50;5092235;28;20048;-74
2023/10/10 01:45:07;;;;;;;0.17;0.17;;;;;;;12.85;94.28;97876.28;5092940;28;20510;-74
2023/10/10 01:47:39;;;;;;;0.20;0.20;;;;;;;12.88;94.50;97881.22;5089483;28;20048;-75
2023/10/10 01:50:10;;;;;;;0.30;0.30;;;;;;;12.82;95.11;97874.84;5090248;28;20096;-74
2023/10/10 01:52:45;;;;;;;0.22;0.20;;;;;;;12.89;94.76;97874.84;5092843;28;20050;-75
2023/10/10 01:55:16;;;;;;;0.30;0.30;;;;;;;12.91;94.49;97880.84;5086759;28;20052;-75
2023/10/10 01:57:44;;;;;;;0.28;0.28;;;;;;;12.97;94.64;97877.34;5093021;28;20113;-74
2023/10/10 02:00:20;;;;;;;0.13;0.13;;;;;;;12.99;94.08;97877.13;5090529;28;20121;-76
2023/10/10 02:02:49;;;;;;;0.25;0.25;;;;;;;12.99;94.38;97885.16;5091304;28;20052;-76
2023/10/10 02:05:32;;;;;;;0.30;0.30;;;;;;;12.97;94.83;97887.25;5093054;28;20511;-76
2023/10/10 02:08:03;;;;;;;0.30;0.30;;;;;;;13.07;94.51;97880.47;5096269;28;20067;-75
2023/10/10 02:10:32;;;;;;;0.10;0.10;;;;;;;13.11;94.16;97878.19;5093878;28;20074;-75
2023/10/10 02:13:00;;;;;;;0.20;0.20;;;;;;;13.10;94.24;97877.38;5090550;28;20048;-74
2023/10/10 02:15:32;;;;;;;0.20;0.20;;;;;;;13.07;94.28;97872.44;5089198;28;20052;-75
2023/10/10 02:18:05;;;;;;;0.20;0.20;;;;;;;13.16;93.44;97871.25;5089022;28;20458;-75
2023/10/10 02:23:32;;;;;;;0.43;0.43;;;;;;;13.04;94.16;97877.38;5087205;27;20403;-75
2023/10/10 02:26:13;;;;;;;0.25;0.25;;;;;;;13.02;94.47;97876.72;5072367;28;20160;-74
2023/10/10 02:28:47;;;;;;;0.25;0.22;;;;;;;13.01;94.68;97875.09;5074218;28;20119;-74
2023/10/10 02:31:16;;;;;;;0.40;0.40;;;;;;;13.04;94.74;97883.56;5069976;28;20045;-75
2023/10/10 02:33:55;;;;;;;0.20;0.20;;;;;;;13.12;94.53;97871.81;5075274;28;20044;-74
2023/10/10 02:36:30;;;;;;;0.32;0.32;;;;;;;13.15;94.25;97868.75;5072810;28;20083;-74
2023/10/10 02:39:18;;;;;;;0.22;0.22;;;;;;;13.16;94.36;97873.09;5071542;28;20507;-73
2023/10/10 02:41:50;;;;;;;0.22;0.22;;;;;;;13.10;94.48;97868.50;5070621;28;20495;-72
2023/10/10 02:44:38;;;;;;;0.30;0.30;;;;;;;13.10;94.50;97853.25;5070263;28;20143;-75
2023/10/10 02:47:06;;;;;;;0.22;0.22;;;;;;;13.08;94.60;97863.34;5069836;28;20044;-72
2023/10/10 02:49:37;;;;;;;0.32;0.32;;;;;;;13.00;95.07;97878.78;5069577;28;20119;-75
2023/10/10 02:52:07;;;;;;;0.13;0.13;;;;;;;12.97;95.30;97882.72;5070435;28;20036;-73
2023/10/10 02:54:43;;;;;;;0.43;0.43;;;;;;;13.00;95.58;97882.28;5065780;28;20037;-72
2023/10/10 03:00:28;;;;;;;0.13;0.13;;;;;;;13.03;95.95;97867.66;5031971;28;20147;-74
2023/10/10 03:02:58;;;;;;;0.20;0.20;;;;;;;13.08;95.71;97873.25;5092416;28;20091;-72
2023/10/10 03:05:39;;;;;;;0.25;0.25;;;;;;;13.09;95.76;97869.53;5068124;28;20450;-73
2023/10/10 03:08:16;;;;;;;0.20;0.20;;;;;;;13.07;95.73;97883.16;5071786;28;20037;-73
2023/10/10 03:10:53;;;;;;;0.73;0.73;;;;;;;13.07;95.57;97885.00;5070129;28;20442;-74
2023/10/10 03:13:35;;;;;;;0.40;0.40;;;;;;;13.04;95.39;97875.50;5070998;28;20395;-73
2023/10/10 03:16:40;;;;;;;0.28;0.28;;;;;;;12.97;95.44;97873.84;5066657;28;20055;-75
2023/10/10 03:25:06;;;;;;;0.35;0.35;;;;;;;12.94;96.04;97888.47;5076349;28;20135;-77
2023/10/10 03:27:50;;;;;;;0.38;0.38;;;;;;;12.94;96.03;97898.38;5074900;28;20051;-74
2023/10/10 03:30:50;;;;;;;0.22;0.22;;;;;;;12.93;96.36;97892.19;5067486;28;20044;-74
2023/10/10 03:33:09;;;;;;;0.30;0.30;;;;;;;12.96;96.30;97885.59;5062596;28;20392;-75
2023/10/10 03:35:59;;;;;;;0.20;0.20;;;;;;;13.00;96.18;97886.81;5053092;28;20049;-74
2023/10/10 03:38:44;;;;;;;0.30;0.30;;;;;;;13.02;96.15;97884.78;5052836;28;20101;-74
2023/10/10 03:41:25;;;;;;;0.35;0.35;;;;;;;13.05;95.67;97889.75;5054496;28;20073;-73
2023/10/10 05:23:48;;;;;;;0.13;0.13;;;;;;;13.17;95.54;97918.47;5054698;28;20492;-75
2023/10/10 05:26:19;;;;;;;0.32;0.32;;;;;;;13.21;95.32;97908.13;5054137;28;20053;-74
2023/10/10 05:28:47;;;;;;;0.30;0.30;;;;;;;13.21;95.08;97914.31;5052555;28;20051;-76
2023/10/10 05:31:19;;;;;;;0.22;0.22;;;;;;;13.21;95.12;97913.50;5056188;28;20041;-74
2023/10/10 05:33:48;;;;;;;0.25;0.22;;;;;;;13.22;95.20;97923.19;5054061;28;20549;-74
2023/10/10 05:36:18;;;;;;;0.15;0.15;;;;;;;13.20;95.34;97922.56;5054371;28;20036;-74
2023/10/10 05:38:50;;;;;;;0.22;0.22;;;;;;;13.20;95.38;97925.25;5055498;28;20075;-74
2023/10/10 05:41:19;;;;;;;0.28;0.28;;;;;;;13.20;95.48;97922.56;5054953;28;20056;-74
2023/10/10 05:43:49;;;;;;;0.17;0.17;;;;;;;13.22;95.15;97928.56;5055877;28;20037;-74
2023/10/10 05:46:18;;;;;;;0.40;0.40;;;;;;;13.23;95.03;97938.25;5055676;28;20043;-74
2023/10/10 05:48:47;;;;;;;0.30;0.30;;;;;;;13.34;94.93;97923.44;5054246;28;20041;-75
2023/10/10 05:51:15;;;;;;;0.30;0.30;;;;;;;13.32;94.69;97926.31;5056580;28;20073;-74
2023/10/10 05:53:42;;;;;;;0.30;0.30;;;;;;;13.37;94.82;97928.38;5057884;28;20128;-74
2023/10/10 05:56:16;;;;;;;0.22;0.22;;;;;;;13.37;94.92;97920.34;5058008;28;20060;-74
2023/10/10 05:58:44;;;;;;;0.22;0.22;;;;;;;13.37;95.04;97925.72;5059563;28;20104;-74
2023/10/10 06:01:13;;;;;;;0.32;0.32;;;;;;;13.40;95.07;97920.75;5057928;28;20047;-74
2023/10/10 06:03:44;;;;;;;0.22;0.22;;;;;;;13.42;94.98;97923.22;5059004;28;20072;-75
2023/10/10 06:06:12;;;;;;;0.20;0.20;;;;;;;13.45;94.90;97920.97;5057350;28;20132;-74
2023/10/10 06:08:42;;;;;;;0.13;0.13;;;;;;;13.47;94.68;97913.56;5056985;28;20041;-74
2023/10/10 06:11:14;;;;;;;0.22;0.22;;;;;;;13.49;94.67;97914.19;5057641;28;20041;-74
2023/10/10 06:13:43;;;;;;;0.30;0.30;;;;;;;13.50;94.45;97917.66;5056934;28;20519;-74
2023/10/10 06:16:14;;;;;;;0.22;0.22;;;;;;;13.51;94.33;97919.31;5055411;28;20040;-74
2023/10/10 06:18:46;;;;;;;0.20;0.20;;;;;;;13.51;94.20;97914.78;5056651;28;20047;-75
2023/10/10 06:21:14;;;;;;;0.22;0.22;;;;;;;13.52;94.12;97908.38;5060993;28;20033;-74
2023/10/10 06:23:44;;;;;;;0.22;0.22;;;;;;;13.51;93.94;97917.47;5062927;28;20741;-74
2023/10/10 06:26:15;;;;;;;0.22;0.22;;;;;;;13.54;94.08;97913.53;5056785;28;20049;-73
2023/10/10 06:28:47;;;;;;;0.70;0.70;;;;;;;13.55;94.28;97918.72;5055555;28;20496;-74
2023/10/10 06:31:19;;;;;;;0.22;0.22;;;;;;;13.53;94.41;97920.75;5053387;28;20519;-74
2023/10/10 06:33:49;;;;;;;0.30;0.30;;;;;;;13.55;94.47;97926.75;5052943;28;20131;-74
2023/10/10 06:36:33;;;;;;;0.30;0.30;;;;;;;13.57;94.59;97931.91;5053824;28;20057;-74
2023/10/10 06:41:49;;;;;;;0.22;0.22;;;;;;;13.67;93.96;97944.91;5053844;28;20127;-74
2023/10/10 06:44:31;;;;;;;0.32;0.32;;;;;;;13.68;93.47;97942.03;5054125;28;20450;-74
2023/10/10 06:47:08;;;;;;;0.32;0.32;;;;;;;13.75;93.61;97936.66;5052755;28;20134;-74
2023/10/10 06:49:54;;;;;;;0.43;0.43;;;;;;;13.75;93.35;97937.50;5052907;28;20115;-74
2023/10/10 06:52:27;;;;;;;0.35;0.35;;;;;;;13.77;93.47;97943.47;5050622;28;20075;-74
2023/10/10 06:54:55;;;;;;;0.22;0.22;;;;;;;13.81;93.44;97941.19;5052365;28;20460;-75
2023/10/10 06:57:36;;;;;;;0.22;0.22;;;;;;;13.82;93.18;97943.66;5052818;28;20622;-73
2023/10/10 07:00:21;;;;;;;0.30;0.30;;;;;;;13.81;92.73;97950.06;5052241;28;20160;-75
2023/10/10 07:02:51;;;;;;;0.22;0.22;;;;;;;13.80;93.16;97943.09;5052609;28;20055;-74
2023/10/10 07:05:20;;;;;;;0.55;0.55;;;;;;;13.80;93.45;97948.44;5053748;28;20388;-74
2023/10/10 07:07:53;;;;;;;0.25;0.25;;;;;;;13.82;93.49;97948.22;5052589;28;20049;-74
2023/10/10 07:10:26;;;;;;;0.30;0.30;;;;;;;13.83;93.31;97945.31;5056769;28;20051;-73
2023/10/10 07:12:57;;;;;;;0.22;0.22;;;;;;;13.84;93.18;97946.16;5056491;28;20049;-74
2023/10/10 07:15:26;;;;;;;0.50;0.50;;;;;;;13.87;93.29;97953.81;5057201;28;20515;-76
2023/10/10 07:18:04;;;;;;;0.25;0.25;;;;;;;13.89;92.99;97963.31;5055707;28;20041;-73
2023/10/10 07:23:20;;;;;;;0.25;0.25;;;;;;;13.96;93.24;97965.97;5059841;28;20051;-74
2023/10/10 07:25:59;;;;;;;0.30;0.30;;;;;;;14.03;93.35;97963.28;5055686;28;20101;-73
2023/10/10 07:28:29;;;;;;;0.25;0.25;;;;;;;14.07;92.85;97975.25;5055012;28;20049;-72
2023/10/10 07:30:56;;;;;;;0.35;0.35;;;;;;;14.11;92.89;97971.97;5054834;28;20059;-74
2023/10/10 07:33:40;;;;;;;0.30;0.30;;;;;;;14.15;92.69;97972.38;5058158;28;20553;-75
2023/10/10 07:36:12;;;;;;;0.30;0.30;;;;;;;14.16;92.91;97964.09;5057905;28;20040;-75
2023/10/10 07:38:40;;;;;;;;;;;;;;;14.18;92.59;97964.72;5053886;28;20049;-73
2023/10/10 07:41:18;;;;;;;0.25;0.25;;;;;;;14.25;92.76;97972.75;5055852;28;19940;-75
2023/10/10 07:43:49;;;;;;;0.40;0.32;;;;;;;14.28;92.34;97975.88;5054255;28;20049;-75
2023/10/10 07:46:19;;;;;;;0.15;0.15;;;;;;;14.33;92.33;97981.41;5054784;28;20041;-73
2023/10/10 07:48:46;;;;;;;0.32;0.32;;;;;;;14.38;92.05;97974.63;5057915;28;20068;-75
2023/10/10 07:51:27;;;;;;;0.30;0.30;;;;;;;14.42;91.62;97978.56;5056157;28;20037;-76
2023/10/10 07:54:10;;;;;;;0.38;0.38;;;;;;;14.48;91.22;97980.41;5052315;28;20041;-73
2023/10/10 07:56:45;;;;;;;0.25;0.25;;;;;;;14.49;91.22;97980.19;5054749;28;20163;-76
2023/10/10 07:59:16;;;;;;;0.30;0.30;;;;;;;14.53;90.92;97986.00;5055539;28;20049;-75
2023/10/10 08:01:47;;;;;;;0.38;0.38;;;;;;;14.58;90.81;97988.84;5054917;28;20051;-76
2023/10/10 08:04:15;;;;;;;0.30;0.30;;;;;;;14.64;90.56;97990.69;5054865;28;20069;-76
2023/10/10 08:06:45;;;;;;;0.40;0.40;;;;;;;14.67;90.76;97990.28;5055542;28;20045;-74
2023/10/10 08:09:19;;;;;;;0.32;0.32;;;;;;;14.70;90.27;97989.88;5052130;28;20041;-73
2023/10/10 08:11:47;;;;;;;0.40;0.40;;;;;;;14.74;90.55;97982.22;5057192;28;20045;-73
2023/10/10 08:14:17;;;;;;;0.22;0.22;;;;;;;14.81;90.56;97988.38;5056113;28;20068;-74
2023/10/10 08:16:45;;;;;;;0.22;0.22;;;;;;;14.86;90.28;97981.31;5053483;28;20466;-74
2023/10/10 08:19:15;;;;;;;0.22;0.22;;;;;;;14.93;90.03;97984.00;5063233;28;20572;-74
2023/10/10 08:21:49;;;;;;;0.13;0.13;;;;;;;15.01;90.09;97992.66;5054971;28;20072;-74
2023/10/10 08:24:19;;;;;;;0.30;0.30;;;;;;;15.05;88.99;97996.56;5057096;28;20059;-74
2023/10/10 08:26:51;;;;;;;0.38;0.38;;;;;;;15.10;88.62;97992.41;5055650;28;20107;-75
2023/10/10 08:29:25;;;;;;;0.40;0.25;;;;;;;15.16;88.78;97988.88;5056756;28;20579;-74
2023/10/10 08:31:53;;;;;;;0.17;0.17;;;;;;;15.18;88.32;97989.47;5056866;28;20049;-74
2023/10/10 08:34:21;;;;;;;0.55;0.55;;;;;;;15.20;88.11;97985.53;5053745;28;20545;-75
2023/10/10 08:36:51;;;;;;;0.28;0.28;;;;;;;15.26;88.34;97984.66;5051538;28;20075;-74
2023/10/10 08:39:25;;;;;;;0.32;0.32;;;;;;;15.32;87.98;97989.22;5053422;28;20044;-74
2023/10/10 08:41:54;;;;;;;0.50;0.50;;;;;;;15.37;87.76;97992.06;5053305;28;20036;-74
2023/10/10 08:44:24;;;;;;;0.20;0.20;;;;;;;15.43;87.92;97990.38;5052708;28;20116;-74
2023/10/10 08:46:54;;;;;;;0.13;0.13;;;;;;;15.50;87.20;97990.34;5053641;28;20045;-74
2023/10/10 08:49:22;;;;;;;0.28;0.28;;;;;;;15.52;86.81;97989.09;5051991;28;20120;-75
2023/10/10 08:51:52;;;;;;;0.45;0.30;;;;;;;15.60;87.23;97991.53;5055065;28;20045;-75
2023/10/10 08:54:20;;;;;;;0.20;0.20;;;;;;;15.62;86.66;97992.16;5054076;28;20112;-74
2023/10/10 08:56:59;;;;;;;0.13;0.13;;;;;;;15.67;86.44;97992.34;5053793;28;20464;-74
2023/10/10 08:59:32;;;;;;;0.25;0.25;;;;;;;15.73;86.28;97990.66;5052682;28;20049;-75
2023/10/10 09:02:12;;;;;;;0.22;0.22;;;;;;;15.74;86.19;97990.44;5052930;28;20045;-75
2023/10/10 09:04:40;;;;;;;0.25;0.25;;;;;;;15.81;86.37;97992.25;5052873;28;20147;-74
2023/10/10 09:07:11;;;;;;;0.32;0.32;;;;;;;15.87;85.49;97991.38;5052724;28;20076;-74
2023/10/10 09:09:39;;;;;;;0.20;0.20;;;;;;;15.97;85.63;97989.03;5053206;28;20571;-74
2023/10/10 09:12:14;;;;;;;0.43;0.43;;;;;;;16.05;84.76;97991.44;5052539;28;20073;-75
2023/10/10 09:14:50;;;;;;;0.28;0.28;;;;;;;16.10;83.86;97987.03;5052981;28;20074;-74
2023/10/10 09:17:29;;;;;;;0.22;0.22;;;;;;;16.20;83.60;97991.09;5051232;28;20124;-74
2023/10/10 09:19:58;;;;;;;0.30;0.30;;;;;;;16.25;82.52;97993.97;5052733;28;20040;-74
2023/10/10 09:22:30;;;;;;;0.63;0.20;;;;;;;16.29;82.54;97996.00;5053427;28;20052;-74
2023/10/10 09:24:59;;;;;;;0.30;0.30;;;;;;;16.33;82.70;97989.13;5052831;28;20124;-75
2023/10/10 09:27:28;;;;;;;0.30;0.30;;;;;;;16.34;81.84;97985.38;5053196;28;20055;-75
2023/10/10 09:30:00;;;;;;;0.40;0.40;;;;;;;16.42;82.62;97989.66;5051893;28;20412;-74
2023/10/10 09:32:35;;;;;;;0.22;0.22;;;;;;;16.50;82.94;97986.69;5054511;28;20045;-75
2023/10/10 09:35:08;;;;;;;0.20;0.20;;;;;;;16.59;82.66;97979.13;5053074;28;20048;-75
2023/10/10 09:37:41;;;;;;;0.22;0.22;;;;;;;16.72;82.34;97987.09;5052818;28;20120;-74
2023/10/10 09:40:16;;;;;;;0.20;0.20;;;;;;;16.77;81.62;97982.69;5053474;28;20489;-75
2023/10/10 09:43:03;;;;;;;0.22;0.22;;;;;;;16.75;81.30;97979.41;5055261;28;20127;-75
2023/10/10 09:52:50;;;;;;;0.25;0.25;;;;;;;16.91;78.20;97979.84;5089635;28;20414;-74
2023/10/10 09:54:15;;;;;;;0.55;0.55;;;;;;;16.96;78.45;97975.41;5077803;28;20044;-74
2023/10/10 09:56:46;;;;;;;0.40;0.40;;;;;;;16.94;76.78;97980.22;5066241;28;20045;-74
2023/10/10 09:59:15;;;;;;;0.30;0.30;;;;;;;16.93;75.74;97975.03;5068701;28;20606;-74
2023/10/10 10:01:46;;;;;;;0.50;0.50;;;;;;;16.92;76.26;97979.63;5071958;28;20048;-74
2023/10/10 10:04:24;;;;;;;0.38;0.38;;;;;;;16.94;77.10;97980.22;5080426;28;20063;-74
2023/10/10 10:07:12;;;;;;;0.25;0.25;;;;;;;17.07;77.29;97980.06;5075229;28;20371;-75
2023/10/10 10:09:56;;;;;;;0.20;0.20;;;;;;;17.20;76.82;97977.19;5077758;28;20454;-77
2023/10/10 10:12:37;;;;;;;0.40;0.40;;;;;;;17.24;76.44;97977.56;5072825;28;20133;-74
2023/10/10 10:15:15;;;;;;;0.50;0.50;;;;;;;17.20;75.43;97982.59;5067132;28;20060;-75
2023/10/10 10:17:53;;;;;;;0.40;0.40;;;;;;;17.19;75.80;97985.50;5067210;28;20041;-74
2023/10/10 10:20:34;;;;;;;0.55;0.55;;;;;;;17.19;75.88;97991.75;5068349;28;20048;-75
2023/10/10 10:23:02;;;;;;;0.45;0.45;;;;;;;17.25;75.34;97988.13;5068256;28;20075;-75
2023/10/10 10:25:31;;;;;;;0.50;0.50;;;;;;;17.13;74.95;97987.22;5068014;28;20044;-74
2023/10/10 10:28:11;;;;;;;0.50;0.50;;;;;;;17.19;75.38;97980.94;5066986;28;20080;-74
2023/10/10 10:30:50;;;;;;;0.40;0.40;;;;;;;17.34;74.68;97977.81;5067079;28;20056;-75
2023/10/10 10:33:23;;;;;;;0.38;0.38;;;;;;;17.35;74.31;97986.75;5068698;28;20496;-75
2023/10/10 10:36:14;;;;;;;0.50;0.50;;;;;;;17.46;74.33;97983.28;5068538;28;20045;-75
2023/10/10 10:41:51;;;;;;;0.60;0.60;;;;;;;17.69;74.39;97980.69;5065547;28;20045;-75
2023/10/10 10:44:53;;;;;;;0.35;0.35;;;;;;;17.79;72.59;97972.84;5068190;28;20044;-75
2023/10/10 10:47:45;;;;;;;0.40;0.40;;;;;;;17.92;72.06;97977.25;5061432;28;20061;-75
2023/10/10 10:50:28;;;;;;;0.32;0.32;;;;;;;17.98;71.71;97969.00;5067695;28;20130;-75
2023/10/10 10:53:05;;;;;;;0.40;0.40;;;;;;;18.04;70.92;97959.19;5067747;28;20452;-75
2023/10/10 10:55:39;;;;;;;0.30;0.30;;;;;;;18.11;70.84;97951.78;5067860;28;20044;-75
2023/10/10 10:58:07;;;;;;;0.40;0.40;;;;;;;18.16;69.94;97945.69;5068747;28;20047;-74
2023/10/10 11:00:56;;;;;;;0.40;0.40;;;;;;;18.19;69.75;97953.28;5059980;28;20053;-75
2023/10/10 11:03:25;;;;;;;0.30;0.30;;;;;;;18.33;69.13;97952.84;5060778;28;20428;-75
2023/10/10 11:05:55;;;;;;;0.52;0.52;;;;;;;18.41;69.16;97951.66;5059499;28;20136;-73
2023/10/10 11:08:51;;;;;;;0.40;0.40;;;;;;;18.53;69.48;97944.38;5054692;28;20416;-72
2023/10/10 11:11:27;;;;;;;0.38;0.38;;;;;;;18.72;66.93;97946.94;5052300;28;20055;-73
2023/10/10 11:14:00;;;;;;;0.30;0.30;;;;;;;18.98;65.42;97952.69;5049955;28;20056;-72
2023/10/10 11:16:36;;;;;;;0.40;0.40;;;;;;;19.25;64.82;97952.09;5050373;28;20139;-72
2023/10/10 11:19:12;;;;;;;0.38;0.38;;;;;;;19.38;64.55;97949.94;5050076;28;20085;-73
2023/10/10 11:21:47;;;;;;;0.30;0.30;;;;;;;19.76;63.14;97948.47;5050150;28;20119;-73
2023/10/10 11:24:23;;;;;;;0.40;0.40;;;;;;;19.84;62.39;97945.34;5049522;28;20047;-73
2023/10/10 11:27:02;;;;;;;0.30;0.30;;;;;;;20.09;62.95;97936.84;5049938;28;20112;-73
2023/10/10 11:29:32;;;;;;;0.22;0.22;;;;;;;20.22;61.34;97932.97;5050262;28;20041;-74
2023/10/10 11:32:07;;;;;;;0.30;0.30;;;;;;;20.11;61.20;97929.28;5050705;28;20052;-73
2023/10/10 11:34:44;;;;;;;0.30;0.30;;;;;;;19.77;62.24;97925.75;5050633;28;20082;-74
2023/10/10 11:37:13;;;;;;;0.43;0.43;;;;;;;19.93;61.85;97921.41;5050402;28;20120;-74
2023/10/10 11:39:48;;;;;;;0.32;0.32;;;;;;;19.93;62.15;97914.09;5056263;28;20033;-74
2023/10/10 11:42:27;;;;;;;0.30;0.30;;;;;;;20.13;62.01;97919.84;5060725;28;20054;-75
2023/10/10 11:45:01;;;;;;;0.63;0.63;;;;;;;20.24;61.16;97917.28;5046782;28;20051;-75
2023/10/10 11:47:29;;;;;;;0.28;0.28;;;;;;;20.25;60.53;97910.75;5048238;28;20037;-75
2023/10/10 11:50:00;;;;;;;0.30;0.30;;;;;;;20.74;59.55;97911.78;5049750;28;20041;-75
2023/10/10 11:52:29;;;;;;;0.30;0.30;;;;;;;21.14;58.58;97897.88;5049958;28;20114;-75
2023/10/10 11:55:00;;;;;;;0.40;0.40;;;;;;;21.27;58.17;97899.41;5050894;28;20086;-75
2023/10/10 11:57:33;;;;;;;0.30;0.30;;;;;;;21.34;56.65;97897.28;5050547;28;20037;-75
2023/10/10 12:00:07;;;;;;;0.30;0.30;;;;;;;21.50;56.60;97894.44;5050055;28;20485;-75
2023/10/10 12:02:55;;;;;;;0.30;0.30;;;;;;;21.29;57.37;97898.03;5045775;28;20053;-75
2023/10/10 12:08:08;;;;;;;0.30;0.30;;;;;;;20.88;57.56;97900.28;5038015;28;20060;-75
2023/10/10 12:10:47;;;;;;;0.38;0.38;;;;;;;20.93;58.41;97904.94;5047248;28;20068;-75
2023/10/10 12:13:33;;;;;;;0.28;0.28;;;;;;;21.18;57.75;97886.25;5053017;28;20049;-75
2023/10/10 12:16:07;;;;;;;0.22;0.22;;;;;;;21.49;56.94;97902.88;5053487;28;20037;-75
2023/10/10 12:18:36;;;;;;;0.30;0.30;;;;;;;21.86;55.38;97898.31;5052526;28;20106;-75
2023/10/10 12:21:04;;;;;;;0.50;0.50;;;;;;;21.79;56.00;97900.44;5054035;28;20056;-76
2023/10/10 12:23:32;;;;;;;0.25;0.25;;;;;;;21.56;56.92;97898.88;5053614;28;20091;-75
2023/10/10 12:26:02;;;;;;;0.22;0.22;;;;;;;21.49;57.11;97905.59;5054417;28;20052;-75
2023/10/10 12:28:30;;;;;;;0.25;0.25;;;;;;;21.00;58.17;97893.91;5054266;28;20064;-75
2023/10/10 12:31:00;;;;;;;0.40;0.40;;;;;;;20.91;58.62;97898.94;5053051;28;20041;-75
2023/10/10 12:33:28;;;;;;;0.22;0.22;;;;;;;20.70;59.54;97891.63;5053468;28;20049;-74
2023/10/10 12:35:56;;;;;;;0.32;0.32;;;;;;;20.56;60.31;97891.16;5053717;28;20114;-75
2023/10/10 12:38:24;;;;;;;0.38;0.38;;;;;;;20.42;61.29;97887.22;5053438;28;20124;-74
2023/10/10 12:40:54;;;;;;;0.30;0.30;;;;;;;20.30;61.13;97883.75;5054912;28;20124;-74
2023/10/10 12:43:24;;;;;;;0.38;0.38;;;;;;;20.23;61.45;97893.94;5054511;28;20057;-74
2023/10/10 12:45:54;;;;;;;0.30;0.30;;;;;;;20.04;61.71;97879.81;5059123;28;20047;-74
2023/10/10 12:48:22;;;;;;;0.30;0.30;;;;;;;19.96;62.78;97888.38;5055350;28;20048;-73
2023/10/10 12:50:51;;;;;;;0.50;0.50;;;;;;;19.92;62.89;97890.78;5060019;28;20049;-74
2023/10/10 12:53:21;;;;;;;0.50;0.50;;;;;;;19.89;62.59;97887.72;5054589;28;20037;-73
2023/10/10 12:55:51;;;;;;;0.38;0.38;;;;;;;19.90;63.16;97881.25;5054803;28;20049;-73
2023/10/10 12:58:20;;;;;;;0.40;0.40;;;;;;;19.94;63.21;97885.09;5054102;28;20049;-73
2023/10/10 13:00:53;;;;;;;0.30;0.30;;;;;;;19.88;62.82;97880.66;5053005;28;20117;-73
2023/10/10 13:03:27;;;;;;;0.30;0.30;;;;;;;19.85;63.21;97881.97;5050699;28;20102;-74
2023/10/10 13:05:58;;;;;;;0.40;0.40;;;;;;;19.96;62.88;97889.19;5052370;28;20090;-74
2023/10/10 13:08:38;;;;;;;0.40;0.40;;;;;;;20.06;62.83;97883.94;5055677;28;20128;-74
2023/10/10 13:11:14;;;;;;;0.10;0.10;;;;;;;20.13;62.63;97881.91;5052687;28;20424;-74
2023/10/10 13:13:46;;;;;;;0.30;0.30;;;;;;;20.16;62.75;97880.56;5052958;28;20104;-75
2023/10/10 13:16:27;;;;;;;0.25;0.25;;;;;;;20.28;62.63;97886.69;5051997;28;20052;-76
2023/10/10 13:18:57;;;;;;;0.40;0.40;;;;;;;20.37;61.97;97877.09;5054072;28;20086;-77
2023/10/10 13:21:25;;;;;;;0.32;0.32;;;;;;;20.52;61.47;97874.59;5052535;28;20045;-76
2023/10/10 13:23:54;;;;;;;0.40;0.40;;;;;;;20.67;60.64;97878.56;5053850;28;20573;-74
2023/10/10 13:26:27;;;;;;;0.38;0.38;;;;;;;20.99;60.01;97881.38;5052201;28;20110;-74
2023/10/10 13:28:55;;;;;;;0.40;0.40;;;;;;;21.39;59.56;97878.31;5050208;28;20037;-74
2023/10/10 13:31:24;;;;;;;0.40;0.40;;;;;;;21.53;60.11;97866.78;5052142;28;20052;-74
2023/10/10 13:33:53;;;;;;;0.30;0.30;;;;;;;21.66;59.05;97865.53;5054084;28;20098;-74
2023/10/10 13:36:20;;;;;;;0.28;0.28;;;;;;;21.85;57.82;97868.69;5053819;28;20048;-75
2023/10/10 13:38:50;;;;;;;0.30;0.30;;;;;;;22.12;57.10;97869.44;5052448;28;20051;-74
2023/10/10 13:41:19;;;;;;;0.30;0.30;;;;;;;22.40;56.24;97864.72;5052066;28;20060;-75
2023/10/10 13:43:47;;;;;;;0.30;0.30;;;;;;;22.55;56.31;97856.63;5053023;28;20496;-75
2023/10/10 13:46:15;;;;;;;0.30;0.30;;;;;;;22.57;56.52;97854.47;5050789;28;20048;-74
2023/10/10 13:48:45;;;;;;;0.30;0.30;;;;;;;22.53;56.25;97854.16;5051509;28;20052;-74
2023/10/10 13:51:13;;;;;;;0.30;0.30;;;;;;;22.52;55.37;97851.75;5052907;28;20063;-74
2023/10/10 13:53:43;;;;;;;0.20;0.20;;;;;;;22.51;56.85;97848.19;5051747;28;20044;-74
2023/10/10 13:56:13;;;;;;;0.22;0.22;;;;;;;22.33;55.82;97843.19;5052745;28;20056;-74
2023/10/10 13:58:46;;;;;;;0.30;0.30;;;;;;;22.09;56.44;97842.78;5052450;28;20048;-74
2023/10/10 14:01:18;;;;;;;0.10;0.10;;;;;;;22.06;57.10;97826.19;5051980;28;20425;-76
2023/10/10 14:03:48;;;;;;;0.30;0.30;;;;;;;22.05;57.33;97833.50;5052525;28;20073;-74
2023/10/10 14:06:19;;;;;;;0.13;0.13;;;;;;;21.80;58.24;97825.97;5052679;28;20048;-74
2023/10/10 14:08:48;;;;;;;0.30;0.30;;;;;;;21.81;58.25;97824.88;5052044;28;20040;-77
2023/10/10 14:11:20;;;;;;;0.32;0.32;;;;;;;21.69;57.84;97824.28;5052147;28;20083;-77